createdAt,value
2022-09-28T00:00:16.878Z,12.00
2022-09-28T00:01:50.612Z,6.00
2022-09-28T00:03:17.350Z,5.90
2022-09-28T00:04:25.347Z,7.60
2022-09-28T00:05:35.252Z,7.70
2022-09-28T00:06:43.826Z,5.30
2022-09-28T00:07:52.446Z,7.30
2022-09-28T00:09:02.702Z,6.50
2022-09-28T00:10:11.205Z,6.40
2022-09-28T00:11:21.921Z,9.70
2022-09-28T00:12:32.092Z,8.40
2022-09-28T00:13:39.676Z,6.90
2022-09-28T00:14:48.546Z,8.20
2022-09-28T00:16:06.981Z,11.00
2022-09-28T00:17:18.040Z,9.20
2022-09-28T00:18:25.689Z,9.60
2022-09-28T00:19:33.306Z,7.30
2022-09-28T00:20:41.542Z,11.00
2022-09-28T00:21:49.484Z,8.00
2022-09-28T00:22:56.965Z,7.60
2022-09-28T00:24:17.735Z,8.30
2022-09-28T00:25:29.292Z,9.00
2022-09-28T00:26:36.542Z,8.40
2022-09-28T00:27:45.607Z,6.80
2022-09-28T00:28:57.276Z,7.70
2022-09-28T00:30:08.557Z,10.30
2022-09-28T00:31:16.585Z,7.40
2022-09-28T00:32:26.089Z,12.50
2022-09-28T00:33:33.910Z,10.00
2022-09-28T00:34:44.468Z,14.30
2022-09-28T00:35:59.992Z,10.50
2022-09-28T00:37:07.958Z,9.10
2022-09-28T00:38:18.146Z,7.30
2022-09-28T00:39:28.584Z,8.10
2022-09-28T00:40:37.102Z,10.70
2022-09-28T00:41:44.907Z,16.50
2022-09-28T00:42:53.695Z,9.80
2022-09-28T00:44:41.615Z,9.10
2022-09-28T00:45:54.600Z,9.50
2022-09-28T00:47:05.146Z,10.50
2022-09-28T00:48:13.046Z,9.40
2022-09-28T00:49:21.886Z,8.30
2022-09-28T00:50:37.384Z,9.90
2022-09-28T00:51:45.437Z,11.10
2022-09-28T00:53:14.721Z,11.30
2022-09-28T00:54:23.986Z,15.30
2022-09-28T00:55:41.064Z,10.90
2022-09-28T00:56:49.205Z,8.70
2022-09-28T00:57:59.560Z,15.90
2022-09-28T00:59:07.330Z,10.30
2022-09-28T01:00:15.955Z,12.50
2022-09-28T01:01:24.216Z,11.00
2022-09-28T01:02:32.160Z,11.30
2022-09-28T01:03:43.018Z,13.40
2022-09-28T01:04:52.098Z,9.40
2022-09-28T01:06:01.642Z,9.80
2022-09-28T01:07:10.283Z,11.10
2022-09-28T01:08:18.037Z,9.70
2022-09-28T01:09:26.625Z,13.10
2022-09-28T01:10:34.819Z,14.10
2022-09-28T01:11:44.285Z,12.00
2022-09-28T01:12:52.562Z,11.70
2022-09-28T01:14:04.661Z,10.40
2022-09-28T01:15:15.318Z,13.10
2022-09-28T01:16:40.218Z,11.50
2022-09-28T01:18:20.070Z,11.50
2022-09-28T01:19:57.641Z,10.50
2022-09-28T01:21:25.307Z,13.50
2022-09-28T01:23:15.105Z,11.60
2022-09-28T01:24:42.813Z,9.10
2022-09-28T01:26:20.539Z,9.70
2022-09-28T01:28:06.974Z,9.80
2022-09-28T01:29:50.984Z,16.40
2022-09-28T01:31:09.277Z,11.80
2022-09-28T01:32:37.719Z,10.20
2022-09-28T01:33:59.325Z,11.30
2022-09-28T01:35:17.072Z,10.30
2022-09-28T01:36:39.072Z,14.10
2022-09-28T01:37:54.273Z,11.80
2022-09-28T01:39:12.974Z,11.40
2022-09-28T01:40:24.087Z,13.00
2022-09-28T01:41:34.583Z,10.40
2022-09-28T01:42:44.470Z,9.50
2022-09-28T01:43:59.456Z,11.50
2022-09-28T01:45:31.281Z,8.80
2022-09-28T01:46:50.967Z,11.40
2022-09-28T01:48:02.937Z,12.50
2022-09-28T01:49:22.435Z,10.10
2022-09-28T01:50:32.942Z,10.30
2022-09-28T01:51:56.600Z,10.60
2022-09-28T01:53:20.124Z,10.70
2022-09-28T01:54:39.295Z,13.90
2022-09-28T01:55:50.418Z,10.70
2022-09-28T01:57:08.517Z,12.80
2022-09-28T01:58:27.702Z,14.40
2022-09-28T01:59:38.864Z,9.00
2022-09-28T02:00:50.837Z,10.30
2022-09-28T02:02:09.933Z,11.60
2022-09-28T02:03:25.881Z,10.50
2022-09-28T02:04:49.716Z,11.10
2022-09-28T02:06:11.259Z,11.40
2022-09-28T02:07:44.876Z,9.10
2022-09-28T02:09:03.338Z,11.00
2022-09-28T02:10:44.831Z,13.00
2022-09-28T02:11:56.955Z,10.60
2022-09-28T02:13:12.295Z,12.30
2022-09-28T02:14:21.585Z,10.20
2022-09-28T02:15:44.857Z,14.90
2022-09-28T02:16:58.483Z,12.90
2022-09-28T02:18:13.405Z,10.60
2022-09-28T02:19:28.693Z,10.60
2022-09-28T02:20:42.086Z,10.20
2022-09-28T02:22:32.954Z,15.50
2022-09-28T02:23:43.944Z,13.10
2022-09-28T02:25:00.889Z,11.40
2022-09-28T02:26:11.464Z,11.90
2022-09-28T02:27:45.704Z,10.30
2022-09-28T02:28:55.151Z,10.60
2022-09-28T02:30:05.758Z,11.90
2022-09-28T02:31:17.423Z,8.90
2022-09-28T02:32:26.429Z,11.40
2022-09-28T02:33:40.244Z,10.60
2022-09-28T02:34:49.342Z,12.40
2022-09-28T02:36:01.327Z,11.90
2022-09-28T02:37:11.313Z,8.50
2022-09-28T02:38:22.345Z,9.70
2022-09-28T02:39:33.310Z,11.50
2022-09-28T02:40:42.433Z,10.90
2022-09-28T02:42:15.790Z,13.50
2022-09-28T02:43:27.676Z,9.90
2022-09-28T02:44:52.278Z,9.40
2022-09-28T02:46:26.001Z,10.50
2022-09-28T02:48:05.557Z,9.50
2022-09-28T02:49:28.338Z,10.50
2022-09-28T02:50:53.190Z,8.40
2022-09-28T02:52:33.030Z,10.80
2022-09-28T02:53:56.125Z,13.10
2022-09-28T02:55:06.985Z,11.30
2022-09-28T02:56:39.087Z,9.00
2022-09-28T02:58:11.339Z,12.40
2022-09-28T02:59:28.886Z,10.80
2022-09-28T03:00:43.302Z,11.60
2022-09-28T03:02:16.742Z,11.90
2022-09-28T03:04:18.974Z,11.30
2022-09-28T03:06:02.728Z,12.80
2022-09-28T03:07:40.982Z,10.60
2022-09-28T03:09:10.331Z,9.10
2022-09-28T03:10:25.275Z,14.30
2022-09-28T03:11:40.460Z,12.10
2022-09-28T03:12:49.547Z,13.50
2022-09-28T03:14:00.099Z,14.80
2022-09-28T03:15:24.824Z,13.70
2022-09-28T03:16:34.981Z,14.70
2022-09-28T03:17:43.065Z,14.40
2022-09-28T03:18:55.475Z,9.60
2022-09-28T03:20:07.450Z,10.20
2022-09-28T03:21:17.244Z,13.40
2022-09-28T03:22:26.813Z,10.80
2022-09-28T03:23:35.509Z,12.80
2022-09-28T03:24:43.833Z,14.30
2022-09-28T03:25:51.805Z,13.80
2022-09-28T03:27:00.909Z,10.60
2022-09-28T03:28:13.112Z,12.70
2022-09-28T03:29:22.675Z,14.60
2022-09-28T03:30:37.476Z,14.40
2022-09-28T03:31:46.482Z,12.10
2022-09-28T03:33:04.815Z,10.50
2022-09-28T03:34:14.639Z,9.90
2022-09-28T03:35:25.706Z,13.10
2022-09-28T03:36:35.392Z,12.00
2022-09-28T03:37:45.709Z,13.30
2022-09-28T03:39:01.963Z,12.40
2022-09-28T03:40:12.159Z,13.10
2022-09-28T03:41:21.862Z,10.20
2022-09-28T03:42:33.092Z,13.30
2022-09-28T03:43:42.581Z,16.80
2022-09-28T03:44:52.320Z,12.70
2022-09-28T03:46:02.317Z,13.60
2022-09-28T03:47:12.689Z,14.90
2022-09-28T03:48:31.905Z,8.70
2022-09-28T03:49:43.742Z,10.50
2022-09-28T03:51:00.146Z,10.50
2022-09-28T03:52:10.365Z,13.90
2022-09-28T03:53:22.246Z,14.20
2022-09-28T03:54:32.609Z,12.00
2022-09-28T03:55:40.930Z,14.60
2022-09-28T03:56:53.289Z,10.60
2022-09-28T03:58:04.261Z,12.90
2022-09-28T03:59:19.849Z,12.90
2022-09-28T04:00:34.084Z,14.80
2022-09-28T04:01:43.675Z,13.20
2022-09-28T04:02:53.298Z,17.60
2022-09-28T04:04:04.944Z,16.10
2022-09-28T04:05:13.964Z,15.40
2022-09-28T04:06:24.381Z,12.30
2022-09-28T04:07:34.380Z,10.80
2022-09-28T04:08:45.230Z,13.10
2022-09-28T04:09:53.490Z,12.50
2022-09-28T04:11:08.980Z,9.90
2022-09-28T04:12:22.084Z,11.70
2022-09-28T04:13:31.869Z,12.60
2022-09-28T04:14:40.232Z,16.00
2022-09-28T04:16:01.895Z,10.40
2022-09-28T04:17:13.700Z,13.80
2022-09-28T04:18:22.935Z,12.20
2022-09-28T04:19:51.605Z,16.30
2022-09-28T04:21:22.738Z,13.90
2022-09-28T04:22:39.151Z,10.10
2022-09-28T04:23:47.153Z,10.80
2022-09-28T04:24:56.417Z,9.40
2022-09-28T04:26:07.023Z,13.20
2022-09-28T04:27:37.253Z,9.00
2022-09-28T04:29:06.781Z,8.60
2022-09-28T04:30:20.862Z,11.60
2022-09-28T04:31:32.405Z,12.90
2022-09-28T04:32:40.703Z,11.40
2022-09-28T04:33:52.208Z,12.40
2022-09-28T04:35:01.044Z,10.60
2022-09-28T04:36:11.162Z,11.40
2022-09-28T04:37:21.671Z,7.20
2022-09-28T04:38:51.620Z,9.90
2022-09-28T04:40:06.318Z,9.00
2022-09-28T04:41:15.131Z,11.00
2022-09-28T04:42:24.052Z,8.00
2022-09-28T04:43:36.103Z,12.80
2022-09-28T04:44:43.711Z,7.30
2022-09-28T04:45:53.416Z,8.80
2022-09-28T04:47:05.436Z,10.00
2022-09-28T04:48:14.665Z,13.40
2022-09-28T04:49:44.765Z,10.20
2022-09-28T04:51:01.515Z,8.40
2022-09-28T04:52:15.808Z,7.80
2022-09-28T04:53:32.332Z,7.70
2022-09-28T04:54:43.471Z,6.90
2022-09-28T04:56:07.828Z,9.20
2022-09-28T04:57:19.891Z,7.00
2022-09-28T04:58:28.172Z,7.90
2022-09-28T04:59:39.770Z,7.80
2022-09-28T05:00:53.284Z,7.50
2022-09-28T05:02:31.359Z,9.90
2022-09-28T05:04:03.526Z,9.40
2022-09-28T05:05:32.183Z,11.40
2022-09-28T05:07:02.920Z,11.40
2022-09-28T05:08:15.349Z,10.10
2022-09-28T05:09:25.067Z,11.30
2022-09-28T05:10:36.561Z,11.10
2022-09-28T05:11:45.479Z,12.50
2022-09-28T05:12:59.074Z,8.80
2022-09-28T05:14:12.659Z,10.50
2022-09-28T05:15:23.392Z,8.40
2022-09-28T05:16:35.279Z,8.70
2022-09-28T05:18:15.963Z,7.00
2022-09-28T05:19:36.560Z,10.80
2022-09-28T05:20:44.872Z,9.00
2022-09-28T05:21:53.259Z,8.30
2022-09-28T05:23:02.401Z,10.80
2022-09-28T05:24:12.965Z,10.90
2022-09-28T05:25:23.392Z,8.00
2022-09-28T05:26:45.437Z,11.80
2022-09-28T05:27:59.753Z,9.30
2022-09-28T05:29:37.900Z,11.10
2022-09-28T05:31:20.578Z,11.30
2022-09-28T05:32:57.648Z,12.80
2022-09-28T05:34:24.600Z,8.80
2022-09-28T05:35:38.142Z,9.00
2022-09-28T05:36:47.436Z,8.90
2022-09-28T05:37:56.899Z,9.40
2022-09-28T05:39:06.482Z,11.70
2022-09-28T05:40:18.385Z,13.60
2022-09-28T05:41:27.806Z,10.50
2022-09-28T05:42:36.783Z,9.70
2022-09-28T05:43:45.532Z,9.50
2022-09-28T05:44:55.037Z,9.80
2022-09-28T05:46:04.197Z,9.20
2022-09-28T05:47:13.472Z,8.50
2022-09-28T05:48:23.378Z,7.80
2022-09-28T05:49:33.463Z,10.80
2022-09-28T05:50:41.980Z,9.10
2022-09-28T05:51:49.994Z,8.40
2022-09-28T05:53:02.479Z,9.40
2022-09-28T05:54:12.880Z,9.40
2022-09-28T05:55:25.703Z,10.60
2022-09-28T05:56:34.529Z,11.60
2022-09-28T05:57:46.068Z,9.80
2022-09-28T05:58:57.745Z,11.40
2022-09-28T06:00:13.674Z,15.60
2022-09-28T06:01:24.179Z,13.00
2022-09-28T06:02:33.290Z,12.10
2022-09-28T06:03:42.149Z,11.20
2022-09-28T06:04:52.881Z,9.80
2022-09-28T06:06:05.555Z,16.90
2022-09-28T06:07:14.355Z,13.50
2022-09-28T06:08:24.452Z,13.20
2022-09-28T06:09:43.975Z,13.90
2022-09-28T06:11:14.811Z,16.00
2022-09-28T06:12:27.542Z,12.60
2022-09-28T06:13:42.222Z,13.00
2022-09-28T06:14:54.232Z,14.50
2022-09-28T06:16:09.722Z,13.00
2022-09-28T06:17:20.831Z,14.60
2022-09-28T06:18:38.619Z,16.70
2022-09-28T06:20:08.809Z,12.20
2022-09-28T06:21:38.703Z,15.20
2022-09-28T06:22:47.437Z,11.60
2022-09-28T06:23:59.647Z,15.70
2022-09-28T06:25:09.456Z,16.90
2022-09-28T06:26:19.861Z,10.90
2022-09-28T06:27:31.863Z,13.10
2022-09-28T06:28:40.029Z,11.50
2022-09-28T06:29:48.225Z,17.50
2022-09-28T06:30:57.044Z,15.70
2022-09-28T06:32:09.590Z,11.70
2022-09-28T06:33:21.131Z,12.40
2022-09-28T06:34:32.172Z,12.10
2022-09-28T06:35:43.914Z,16.60
2022-09-28T06:36:52.925Z,12.80
2022-09-28T06:38:02.523Z,12.10
2022-09-28T06:39:12.149Z,12.40
2022-09-28T06:40:25.038Z,12.10
2022-09-28T06:41:35.531Z,15.30
2022-09-28T06:43:12.086Z,12.10
2022-09-28T06:44:41.560Z,15.10
2022-09-28T06:46:24.378Z,12.00
2022-09-28T06:47:59.227Z,13.80
2022-09-28T06:49:19.565Z,11.80
2022-09-28T06:50:48.888Z,10.90
2022-09-28T06:52:17.394Z,10.40
2022-09-28T06:53:46.628Z,11.20
2022-09-28T06:55:13.994Z,11.70
2022-09-28T06:56:29.395Z,14.60
2022-09-28T06:57:42.460Z,11.40
2022-09-28T06:58:51.371Z,11.10
2022-09-28T07:00:00.913Z,9.70
2022-09-28T07:01:12.064Z,11.10
2022-09-28T07:02:39.223Z,10.60
2022-09-28T07:04:12.162Z,13.20
2022-09-28T07:05:44.953Z,11.40
2022-09-28T07:07:13.724Z,10.50
2022-09-28T07:09:07.723Z,14.40
2022-09-28T07:10:44.529Z,12.10
2022-09-28T07:12:15.509Z,10.20
2022-09-28T07:13:49.877Z,10.30
2022-09-28T07:15:03.837Z,12.70
2022-09-28T07:16:14.820Z,12.00
2022-09-28T07:17:26.208Z,12.50
2022-09-28T07:18:37.167Z,13.90
2022-09-28T07:19:45.505Z,14.20
2022-09-28T07:20:55.883Z,12.70
2022-09-28T07:22:07.690Z,11.90
2022-09-28T07:23:19.679Z,16.60
2022-09-28T07:24:49.282Z,15.30
2022-09-28T07:26:24.346Z,12.30
2022-09-28T07:28:02.137Z,14.30
2022-09-28T07:29:31.694Z,13.10
2022-09-28T07:31:05.033Z,14.00
2022-09-28T07:32:27.386Z,13.50
2022-09-28T07:33:43.642Z,13.80
2022-09-28T07:35:02.427Z,12.20
2022-09-28T07:36:36.532Z,13.00
2022-09-28T07:37:44.745Z,12.10
2022-09-28T07:38:53.369Z,16.10
2022-09-28T07:40:23.560Z,15.50
2022-09-28T07:41:35.528Z,10.60
2022-09-28T07:42:52.327Z,16.30
2022-09-28T07:44:08.786Z,16.00
2022-09-28T07:45:22.543Z,10.10
2022-09-28T07:46:33.518Z,13.70
2022-09-28T07:47:49.602Z,12.30
2022-09-28T07:49:24.357Z,13.10
2022-09-28T07:51:01.632Z,12.30
2022-09-28T07:52:19.101Z,11.50
2022-09-28T07:54:05.845Z,15.90
2022-09-28T07:55:28.048Z,10.90
2022-09-28T07:56:50.449Z,12.50
2022-09-28T07:58:23.102Z,13.40
2022-09-28T07:59:43.193Z,13.20
2022-09-28T08:01:14.615Z,16.10
2022-09-28T08:02:24.307Z,10.90
2022-09-28T08:03:33.529Z,13.90
2022-09-28T08:04:43.128Z,13.70
2022-09-28T08:05:51.300Z,14.30
2022-09-28T08:07:02.168Z,15.70
2022-09-28T08:08:11.903Z,13.10
2022-09-28T08:09:21.243Z,14.30
2022-09-28T08:10:52.576Z,13.10
2022-09-28T08:12:24.570Z,14.00
2022-09-28T08:13:49.461Z,12.50
2022-09-28T08:15:19.164Z,12.60
2022-09-28T08:18:07.343Z,12.80
2022-09-28T08:19:17.408Z,14.90
2022-09-28T08:20:48.097Z,13.70
2022-09-28T08:22:00.468Z,15.20
2022-09-28T08:23:10.822Z,12.00
2022-09-28T08:24:22.497Z,15.70
2022-09-28T08:25:33.930Z,22.40
2022-09-28T08:26:44.988Z,13.00
2022-09-28T08:27:57.825Z,13.50
2022-09-28T08:29:08.174Z,16.40
2022-09-28T08:30:40.269Z,13.40
2022-09-28T08:32:23.897Z,13.50
2022-09-28T08:33:55.999Z,17.00
2022-09-28T08:35:27.838Z,20.00
2022-09-28T08:37:06.862Z,14.90
2022-09-28T08:38:34.725Z,14.20
2022-09-28T08:40:04.863Z,14.40
2022-09-28T08:41:51.169Z,16.10
2022-09-28T08:43:32.930Z,14.70
2022-09-28T08:45:00.519Z,12.00
2022-09-28T08:46:47.305Z,15.10
2022-09-28T08:48:45.705Z,14.60
2022-09-28T08:50:29.431Z,12.90
2022-09-28T08:51:52.138Z,11.90
2022-09-28T08:53:27.532Z,13.00
2022-09-28T08:54:50.818Z,14.40
2022-09-28T08:56:13.731Z,16.90
2022-09-28T08:57:25.727Z,15.80
2022-09-28T08:58:45.551Z,12.30
2022-09-28T09:00:01.701Z,16.20
2022-09-28T09:01:18.361Z,13.00
2022-09-28T09:02:27.005Z,13.10
2022-09-28T09:03:47.880Z,14.50
2022-09-28T09:05:17.419Z,11.00
2022-09-28T09:06:54.518Z,11.00
2022-09-28T09:08:38.248Z,12.30
2022-09-28T09:10:28.486Z,11.00
2022-09-28T09:12:15.665Z,12.80
2022-09-28T09:13:47.762Z,15.90
2022-09-28T09:15:07.503Z,11.00
2022-09-28T09:16:39.651Z,12.00
2022-09-28T09:18:26.782Z,13.50
2022-09-28T09:19:57.688Z,14.70
2022-09-28T09:21:36.582Z,11.70
2022-09-28T09:23:03.642Z,11.90
2022-09-28T09:24:35.813Z,16.30
2022-09-28T09:25:57.672Z,17.70
2022-09-28T09:27:14.089Z,12.80
2022-09-28T09:28:46.846Z,9.90
2022-09-28T09:30:23.889Z,15.50
2022-09-28T09:31:52.987Z,13.10
2022-09-28T09:33:07.011Z,17.00
2022-09-28T09:34:34.024Z,11.50
2022-09-28T09:36:27.858Z,16.20
2022-09-28T09:38:24.177Z,15.40
2022-09-28T09:40:06.168Z,13.60
2022-09-28T09:42:13.967Z,14.40
2022-09-28T09:44:20.359Z,24.90
2022-09-28T09:45:44.707Z,12.50
2022-09-28T09:47:17.877Z,19.10
2022-09-28T09:49:07.668Z,12.30
2022-09-28T09:50:41.043Z,13.90
2022-09-28T09:52:28.230Z,15.60
2022-09-28T09:53:51.393Z,20.70
2022-09-28T09:55:30.081Z,11.30
2022-09-28T09:57:28.992Z,14.40
2022-09-28T09:58:59.532Z,16.00
2022-09-28T10:00:19.285Z,13.20
2022-09-28T10:01:38.804Z,15.30
2022-09-28T10:02:58.284Z,18.30
2022-09-28T10:04:37.613Z,17.00
2022-09-28T10:06:03.345Z,13.90
2022-09-28T10:07:16.091Z,15.30
2022-09-28T10:08:25.356Z,13.80
2022-09-28T10:09:57.940Z,12.20
2022-09-28T10:11:32.435Z,13.60
2022-09-28T10:12:40.846Z,14.70
2022-09-28T10:13:52.799Z,12.20
2022-09-28T10:15:34.268Z,15.70
2022-09-28T10:16:57.398Z,11.50
2022-09-28T10:18:28.239Z,15.80
2022-09-28T10:19:57.487Z,13.60
2022-09-28T10:21:30.414Z,13.80
2022-09-28T10:22:41.614Z,16.90
2022-09-28T10:23:57.251Z,15.00
2022-09-28T10:25:11.794Z,18.70
2022-09-28T10:26:28.219Z,11.50
2022-09-28T10:27:42.365Z,13.80
2022-09-28T10:29:03.405Z,15.30
2022-09-28T10:30:26.327Z,12.70
2022-09-28T10:31:55.071Z,14.70
2022-09-28T10:33:36.385Z,14.30
2022-09-28T10:34:48.735Z,17.40
2022-09-28T10:36:07.366Z,18.10
2022-09-28T10:37:16.347Z,14.70
2022-09-28T10:38:50.100Z,16.30
2022-09-28T10:40:33.455Z,16.50
2022-09-28T10:41:52.623Z,22.10
2022-09-28T10:43:35.243Z,15.70
2022-09-28T10:45:22.558Z,12.70
2022-09-28T10:46:31.477Z,14.20
2022-09-28T10:47:40.372Z,15.20
2022-09-28T10:49:05.867Z,19.70
2022-09-28T10:50:33.418Z,15.80
2022-09-28T10:51:58.295Z,13.60
2022-09-28T10:53:22.901Z,13.50
2022-09-28T10:54:58.394Z,15.60
2022-09-28T10:56:25.207Z,11.90
2022-09-28T10:57:41.596Z,17.90
2022-09-28T10:58:50.001Z,15.20
2022-09-28T11:00:09.400Z,14.30
2022-09-28T11:01:25.773Z,16.30
2022-09-28T11:02:36.906Z,15.60
2022-09-28T11:04:07.951Z,15.60
2022-09-28T11:05:24.531Z,14.10
2022-09-28T11:06:41.179Z,11.00
2022-09-28T11:07:50.126Z,14.00
2022-09-28T11:09:03.145Z,15.50
2022-09-28T11:10:22.046Z,15.70
2022-09-28T11:11:34.580Z,17.30
2022-09-28T11:12:46.683Z,17.70
2022-09-28T11:14:02.321Z,15.20
2022-09-28T11:15:36.764Z,18.10
2022-09-28T11:16:45.215Z,14.80
2022-09-28T11:17:54.657Z,18.40
2022-09-28T11:19:26.171Z,12.60
2022-09-28T11:20:37.832Z,16.50
2022-09-28T11:21:47.771Z,14.00
2022-09-28T11:23:00.170Z,14.80
2022-09-28T11:24:27.188Z,17.10
2022-09-28T11:25:39.665Z,14.50
2022-09-28T11:26:55.142Z,18.60
2022-09-28T11:28:06.219Z,15.70
2022-09-28T11:29:37.401Z,17.50
2022-09-28T11:31:05.140Z,16.70
2022-09-28T11:32:20.921Z,17.60
2022-09-28T11:33:51.139Z,16.40
2022-09-28T11:36:07.767Z,15.60
2022-09-28T11:37:39.932Z,17.00
2022-09-28T11:39:25.076Z,20.10
2022-09-28T11:40:50.863Z,16.80
2022-09-28T11:42:17.922Z,14.90
2022-09-28T11:43:27.355Z,18.90
2022-09-28T11:45:22.118Z,17.10
2022-09-28T11:46:41.665Z,16.50
2022-09-28T11:48:04.427Z,14.90
2022-09-28T11:49:29.457Z,18.90
2022-09-28T11:50:46.592Z,15.70
2022-09-28T11:51:58.858Z,18.90
2022-09-28T11:53:18.709Z,18.70
2022-09-28T11:54:30.657Z,15.10
2022-09-28T11:55:57.635Z,20.10
2022-09-28T11:57:06.765Z,15.90
2022-09-28T11:58:26.572Z,15.00
2022-09-28T11:59:36.979Z,17.90
2022-09-28T12:01:02.277Z,24.70
2022-09-28T12:02:55.864Z,19.40
2022-09-28T12:04:28.333Z,18.80
2022-09-28T12:05:42.446Z,17.60
2022-09-28T12:07:13.074Z,20.30
2022-09-28T12:08:29.377Z,19.10
2022-09-28T12:10:15.640Z,16.00
2022-09-28T12:11:37.898Z,21.30
2022-09-28T12:13:06.214Z,15.70
2022-09-28T12:14:37.364Z,13.50
2022-09-28T12:16:23.484Z,16.00
2022-09-28T12:17:53.260Z,14.00
2022-09-28T12:19:29.122Z,15.70
2022-09-28T12:20:41.843Z,17.60
2022-09-28T12:22:00.547Z,13.00
2022-09-28T12:23:24.464Z,14.60
2022-09-28T12:24:44.345Z,14.80
2022-09-28T12:25:57.660Z,14.70
2022-09-28T12:27:16.355Z,13.30
2022-09-28T12:28:29.580Z,16.80
2022-09-28T12:29:51.833Z,16.90
2022-09-28T12:31:03.380Z,16.60
2022-09-28T12:32:18.106Z,13.50
2022-09-28T12:33:27.179Z,15.60
2022-09-28T12:34:36.167Z,15.20
2022-09-28T12:35:57.540Z,16.80
2022-09-28T12:37:35.692Z,12.10
2022-09-28T12:39:27.186Z,17.40
2022-09-28T12:40:56.490Z,15.50
2022-09-28T12:42:25.501Z,16.80
2022-09-28T12:43:50.228Z,18.20
2022-09-28T12:45:42.888Z,12.90
2022-09-28T12:47:34.488Z,15.20
2022-09-28T12:49:21.656Z,13.30
2022-09-28T12:50:38.530Z,16.30
2022-09-28T12:52:04.304Z,14.80
2022-09-28T12:53:51.719Z,17.70
2022-09-28T12:55:21.616Z,15.90
2022-09-28T12:56:58.203Z,16.60
2022-09-28T12:58:28.436Z,15.90
2022-09-28T12:59:55.836Z,16.20
2022-09-28T13:01:52.893Z,18.40
2022-09-28T13:03:22.721Z,14.30
2022-09-28T13:04:49.114Z,14.10
2022-09-28T13:06:33.718Z,21.40
2022-09-28T13:08:05.554Z,16.10
2022-09-28T13:09:21.777Z,17.20
2022-09-28T13:10:48.089Z,14.10
2022-09-28T13:12:17.290Z,24.20
2022-09-28T13:13:33.281Z,18.90
2022-09-28T13:15:10.802Z,16.80
2022-09-28T13:16:37.137Z,17.40
2022-09-28T13:18:18.200Z,20.50
2022-09-28T13:19:48.165Z,22.10
2022-09-28T13:21:13.023Z,15.90
2022-09-28T13:22:31.833Z,22.30
2022-09-28T13:23:47.448Z,18.50
2022-09-28T13:24:57.096Z,17.40
2022-09-28T13:26:31.062Z,16.20
2022-09-28T13:28:04.660Z,21.00
2022-09-28T13:29:15.880Z,21.90
2022-09-28T13:30:25.475Z,20.70
2022-09-28T13:31:37.151Z,18.20
2022-09-28T13:32:49.202Z,20.50
2022-09-28T13:33:57.376Z,19.60
2022-09-28T13:35:08.254Z,15.70
2022-09-28T13:36:35.571Z,19.10
2022-09-28T13:37:46.828Z,19.20
2022-09-28T13:38:57.694Z,15.50
2022-09-28T13:40:08.093Z,19.60
2022-09-28T13:41:17.769Z,16.50
2022-09-28T13:42:31.432Z,22.40
2022-09-28T13:44:14.518Z,18.50
2022-09-28T13:45:36.781Z,22.90
2022-09-28T13:46:53.760Z,24.40
2022-09-28T13:48:30.035Z,20.00
2022-09-28T13:49:48.432Z,16.20
2022-09-28T13:51:41.805Z,25.10
2022-09-28T13:53:22.107Z,22.70
2022-09-28T13:55:10.012Z,23.00
2022-09-28T13:56:37.295Z,18.20
2022-09-28T13:57:59.526Z,22.30
2022-09-28T13:59:19.203Z,29.80
2022-09-28T14:00:51.945Z,25.90
2022-09-28T14:02:20.050Z,20.40
2022-09-28T14:04:07.673Z,18.90
2022-09-28T14:05:40.240Z,22.90
2022-09-28T14:06:59.620Z,17.70
2022-09-28T14:08:26.437Z,21.40
2022-09-28T14:10:11.712Z,21.80
2022-09-28T14:11:27.915Z,15.20
2022-09-28T14:12:37.774Z,19.60
2022-09-28T14:13:46.881Z,20.80
2022-09-28T14:14:58.684Z,16.70
2022-09-28T14:16:26.154Z,20.00
2022-09-28T14:17:56.785Z,18.60
2022-09-28T14:19:18.351Z,22.90
2022-09-28T14:20:31.585Z,14.90
2022-09-28T14:22:05.703Z,14.30
2022-09-28T14:23:37.238Z,13.50
2022-09-28T14:25:01.585Z,24.80
2022-09-28T14:26:43.521Z,19.50
2022-09-28T14:28:15.892Z,18.20
2022-09-28T14:29:32.275Z,16.10
2022-09-28T14:30:46.583Z,13.90
2022-09-28T14:31:55.186Z,17.30
2022-09-28T14:33:05.364Z,17.20
2022-09-28T14:34:35.894Z,17.30
2022-09-28T14:35:51.393Z,23.10
2022-09-28T14:37:24.191Z,17.80
2022-09-28T14:39:13.017Z,19.40
2022-09-28T14:41:07.460Z,22.30
2022-09-28T14:42:24.207Z,17.10
2022-09-28T14:43:48.445Z,21.30
2022-09-28T14:45:09.925Z,18.10
2022-09-28T14:46:19.373Z,19.90
2022-09-28T14:47:38.050Z,18.40
2022-09-28T14:48:56.922Z,19.70
2022-09-28T14:50:26.210Z,18.50
2022-09-28T14:51:44.627Z,17.30
2022-09-28T14:53:15.653Z,20.20
2022-09-28T14:54:25.817Z,20.90
2022-09-28T14:55:52.672Z,21.80
2022-09-28T14:57:10.047Z,23.20
2022-09-28T14:58:24.218Z,18.20
2022-09-28T14:59:37.999Z,18.90
2022-09-28T15:00:46.106Z,22.60
2022-09-28T15:02:20.960Z,19.50
2022-09-28T15:03:32.728Z,24.10
2022-09-28T15:04:45.048Z,18.50
2022-09-28T15:05:57.028Z,19.50
2022-09-28T15:07:06.997Z,31.30
2022-09-28T15:08:17.751Z,25.60
2022-09-28T15:09:34.348Z,22.40
2022-09-28T15:10:52.096Z,26.20
2022-09-28T15:12:19.789Z,27.50
2022-09-28T15:13:30.749Z,27.60
2022-09-28T15:15:04.732Z,20.60
2022-09-28T15:16:25.559Z,23.40
2022-09-28T15:17:40.093Z,21.00
2022-09-28T15:19:35.637Z,23.10
2022-09-28T15:20:45.013Z,23.50
2022-09-28T15:21:55.193Z,20.20
2022-09-28T15:23:03.864Z,18.30
2022-09-28T15:24:37.134Z,23.40
2022-09-28T15:25:56.780Z,20.70
2022-09-28T15:27:13.140Z,26.10
2022-09-28T15:28:25.814Z,25.00
2022-09-28T15:29:35.803Z,25.00
2022-09-28T15:30:45.035Z,29.70
2022-09-28T15:31:55.304Z,23.80
2022-09-28T15:33:28.114Z,23.00
2022-09-28T15:34:53.369Z,22.00
2022-09-28T15:36:08.977Z,23.90
2022-09-28T15:37:23.727Z,20.30
2022-09-28T15:38:37.111Z,26.90
2022-09-28T15:39:49.818Z,21.60
2022-09-28T15:40:58.104Z,29.40
2022-09-28T15:42:08.647Z,28.30
2022-09-28T15:43:39.862Z,23.90
2022-09-28T15:45:16.984Z,26.40
2022-09-28T15:46:28.125Z,23.70
2022-09-28T15:47:37.108Z,18.80
2022-09-28T15:48:58.586Z,22.20
2022-09-28T15:50:32.042Z,19.00
2022-09-28T15:51:54.890Z,17.90
2022-09-28T15:53:07.723Z,16.10
2022-09-28T15:54:25.692Z,20.10
2022-09-28T15:55:44.511Z,23.90
2022-09-28T15:57:01.767Z,20.30
2022-09-28T15:58:26.535Z,16.40
2022-09-28T15:59:41.360Z,16.70
2022-09-28T16:00:50.697Z,15.10
2022-09-28T16:02:28.437Z,18.60
2022-09-28T16:03:37.590Z,17.40
2022-09-28T16:04:46.769Z,18.90
2022-09-28T16:06:01.705Z,17.30
2022-09-28T16:07:20.570Z,19.10
2022-09-28T16:08:45.667Z,15.90
2022-09-28T16:10:16.203Z,19.70
2022-09-28T16:11:29.542Z,15.40
2022-09-28T16:12:43.858Z,20.50
2022-09-28T16:13:59.018Z,18.80
2022-09-28T16:15:21.988Z,15.60
2022-09-28T16:16:47.889Z,21.30
2022-09-28T16:18:04.969Z,22.40
2022-09-28T16:19:38.907Z,13.60
2022-09-28T16:20:48.354Z,18.40
2022-09-28T16:21:57.523Z,20.70
2022-09-28T16:23:26.211Z,19.30
2022-09-28T16:24:39.056Z,18.90
2022-09-28T16:26:18.582Z,17.70
2022-09-28T16:27:42.243Z,14.30
2022-09-28T16:28:53.125Z,16.40
2022-09-28T16:30:23.452Z,20.60
2022-09-28T16:31:35.974Z,15.30
2022-09-28T16:32:54.466Z,14.80
2022-09-28T16:34:23.116Z,15.40
2022-09-28T16:35:52.513Z,16.60
2022-09-28T16:36:59.930Z,13.10
2022-09-28T16:38:17.260Z,17.40
2022-09-28T16:39:24.761Z,14.20
2022-09-28T16:40:32.242Z,20.60
2022-09-28T16:41:41.245Z,20.40
2022-09-28T16:42:49.443Z,17.30
2022-09-28T16:44:00.578Z,20.50
2022-09-28T16:45:10.043Z,17.70
2022-09-28T16:46:21.532Z,18.70
2022-09-28T16:47:35.891Z,13.90
2022-09-28T16:48:50.055Z,13.40
2022-09-28T16:49:57.551Z,21.70
2022-09-28T16:51:04.651Z,13.80
2022-09-28T16:52:14.442Z,14.40
2022-09-28T16:53:40.452Z,18.40
2022-09-28T16:55:22.773Z,14.90
2022-09-28T16:56:36.150Z,14.70
2022-09-28T16:57:47.217Z,16.50
2022-09-28T16:58:56.251Z,12.90
2022-09-28T17:00:03.920Z,11.40
2022-09-28T17:01:12.030Z,14.10
2022-09-28T17:02:45.259Z,14.10
2022-09-28T17:03:51.689Z,15.40
2022-09-28T17:04:59.639Z,22.10
2022-09-28T17:06:10.386Z,15.00
2022-09-28T17:07:17.812Z,16.10
2022-09-28T17:08:26.133Z,16.80
2022-09-28T17:09:33.784Z,12.50
2022-09-28T17:11:13.883Z,13.30
2022-09-28T17:12:30.439Z,12.70
2022-09-28T17:13:40.660Z,14.80
2022-09-28T17:14:48.107Z,15.30
2022-09-28T17:15:58.965Z,13.90
2022-09-28T17:17:12.488Z,12.70